Agena — LXHI — position and weather

sailwx.info

Track history (hours):
 
Tides and Currents Weather Stations Pressure Air Temp Water Temp Dewpoint Dewpoint Depression Visibility Wind Speed Wind Dir Waves Ship Positions

Agena

Last reported at 2017-Dec-09 09:47 UTC. Time now 2017-Dec-13 14:42 UTC.
Position N 08°09' W 079°28'.

Length 184 m; draft 11.2 m.

Type: Ship. MMSI: 253356000.

Date/timePositionNaut miles runAvg speedWind from/ knotsBaromVisibWave heightAir tempDewpointWater temp
2017-Dec-09 09:47N 08°09' W 079°28'311.8
2017-Dec-09 09:30N 08°12' W 079°28'612.1
2017-Dec-09 08:59N 08°19' W 079°27'812.6
2017-Dec-09 08:21N 08°26' W 079°27'512.7
2017-Dec-09 07:56N 08°32' W 079°28'46 6.4
2017-Dec-09 00:49N 09°11' W 079°52'411.8
2017-Dec-09 00:30N 09°12' W 079°55'4 7.5
2017-Dec-09 00:00N 09°16' W 079°55'0 0.5
2017-Dec-08 23:30N 09°16' W 079°55'0 0.4
2017-Dec-08 23:00N 09°17' W 079°55'0 0.9
2017-Dec-08 22:30N 09°17' W 079°55'3 5.4
2017-Dec-08 22:00N 09°20' W 079°55'3 5.7
2017-Dec-08 21:30N 09°23' W 079°55'0 0.1
2017-Dec-08 20:58N 09°23' W 079°55'0 0.0
2017-Dec-08 20:28N 09°23' W 079°55'0 0.1
2017-Dec-08 19:58N 09°23' W 079°55'0 0.0
2017-Dec-08 19:28N 09°23' W 079°55'0 0.1
2017-Dec-08 18:58N 09°23' W 079°55'0 0.0
2017-Dec-08 18:28N 09°23' W 079°55'0 0.0
2017-Dec-08 17:49N 09°23' W 079°55'0 0.0
2017-Dec-08 17:28N 09°23' W 079°55'0 0.1
2017-Dec-08 16:52N 09°23' W 079°55'0 0.1
2017-Dec-08 16:28N 09°23' W 079°55'0 0.1
2017-Dec-08 15:58N 09°23' W 079°55'0 0.0
2017-Dec-08 15:28N 09°23' W 079°55'0 0.0
2017-Dec-08 14:58N 09°23' W 079°55'0 0.1
2017-Dec-08 14:28N 09°23' W 079°55'0 0.0
2017-Dec-08 13:55N 09°23' W 079°55'0 0.0
2017-Dec-08 13:28N 09°23' W 079°55'0 0.0
2017-Dec-08 12:58N 09°23' W 079°55'0 0.1
2017-Dec-08 12:28N 09°23' W 079°55'0 0.1
2017-Dec-08 12:00N 09°23' W 079°55'1 1.9
2017-Dec-08 11:30N 09°24' W 079°55'2 3.6
2017-Dec-08 11:00N 09°25' W 079°55'2 4.9
2017-Dec-08 10:31N 09°28' W 079°55'1 2.9
2017-Dec-08 10:01N 09°29' W 079°54'3 6.8
2017-Dec-08 09:30N 09°32' W 079°53'3 6.8
2017-Dec-08 09:00N 09°36' W 079°53'4 8.2
2017-Dec-08 08:30N 09°40' W 079°53'  
Track history (hours):
 
Tides and Currents Weather Stations Pressure Air Temp Water Temp Dewpoint Dewpoint Depression Visibility Wind Speed Wind Dir Waves Ship Positions

Agena

Last reported at 2017-Dec-09 09:47 UTC. Time now 2017-Dec-13 14:42 UTC.
Position N 08°09' W 079°28'.

Length 184 m; draft 11.2 m.

Type: Ship. MMSI: 253356000.

Date/timePositionNaut miles runAvg speedWind from/ knotsBaromVisibWave heightAir tempDewpointWater temp
2017-Dec-09 09:47N 08°09' W 079°28'311.8
2017-Dec-09 09:30N 08°12' W 079°28'612.1
2017-Dec-09 08:59N 08°19' W 079°27'812.6
2017-Dec-09 08:21N 08°26' W 079°27'512.7
2017-Dec-09 07:56N 08°32' W 079°28'46 6.4
2017-Dec-09 00:49N 09°11' W 079°52'411.8
2017-Dec-09 00:30N 09°12' W 079°55'4 7.5
2017-Dec-09 00:00N 09°16' W 079°55'0 0.5
2017-Dec-08 23:30N 09°16' W 079°55'0 0.4
2017-Dec-08 23:00N 09°17' W 079°55'0 0.9
2017-Dec-08 22:30N 09°17' W 079°55'3 5.4
2017-Dec-08 22:00N 09°20' W 079°55'3 5.7
2017-Dec-08 21:30N 09°23' W 079°55'0 0.1
2017-Dec-08 20:58N 09°23' W 079°55'0 0.0
2017-Dec-08 20:28N 09°23' W 079°55'0 0.1
2017-Dec-08 19:58N 09°23' W 079°55'0 0.0
2017-Dec-08 19:28N 09°23' W 079°55'0 0.1
2017-Dec-08 18:58N 09°23' W 079°55'0 0.0
2017-Dec-08 18:28N 09°23' W 079°55'0 0.0
2017-Dec-08 17:49N 09°23' W 079°55'0 0.0
2017-Dec-08 17:28N 09°23' W 079°55'0 0.1
2017-Dec-08 16:52N 09°23' W 079°55'0 0.1
2017-Dec-08 16:28N 09°23' W 079°55'0 0.1
2017-Dec-08 15:58N 09°23' W 079°55'0 0.0
2017-Dec-08 15:28N 09°23' W 079°55'0 0.0
2017-Dec-08 14:58N 09°23' W 079°55'0 0.1
2017-Dec-08 14:28N 09°23' W 079°55'0 0.0
2017-Dec-08 13:55N 09°23' W 079°55'0 0.0
2017-Dec-08 13:28N 09°23' W 079°55'0 0.0
2017-Dec-08 12:58N 09°23' W 079°55'0 0.1
2017-Dec-08 12:28N 09°23' W 079°55'0 0.1
2017-Dec-08 12:00N 09°23' W 079°55'1 1.9
2017-Dec-08 11:30N 09°24' W 079°55'2 3.6
2017-Dec-08 11:00N 09°25' W 079°55'2 4.9
2017-Dec-08 10:31N 09°28' W 079°55'1 2.9
2017-Dec-08 10:01N 09°29' W 079°54'3 6.8
2017-Dec-08 09:30N 09°32' W 079°53'3 6.8
2017-Dec-08 09:00N 09°36' W 079°53'4 8.2
2017-Dec-08 08:30N 09°40' W 079°53'  

Dump ship's entire track history